createdAt,value
2019-05-21T00:01:22.883Z,100487.02
2019-05-21T00:03:56.618Z,100486.12
2019-05-21T00:06:30.346Z,100486.12
2019-05-21T00:09:04.786Z,100497.28
2019-05-21T00:11:38.522Z,100499.92
2019-05-21T00:14:12.219Z,100497.03
2019-05-21T00:16:45.935Z,100487.69
2019-05-21T00:19:19.660Z,100487.69
2019-05-21T00:21:53.362Z,100475.72
2019-05-21T00:24:27.078Z,100477.50
2019-05-21T00:27:00.815Z,100477.50
2019-05-21T00:30:11.024Z,100483.31
2019-05-21T00:33:21.253Z,100483.73
2019-05-21T00:36:31.727Z,100482.14
2019-05-21T00:39:42.073Z,100479.33
2019-05-21T00:42:19.044Z,100471.97
2019-05-21T00:44:52.747Z,100476.15
2019-05-21T00:47:26.475Z,100476.15
2019-05-21T00:50:00.179Z,100475.41
2019-05-21T00:52:33.985Z,100480.89
2019-05-21T00:55:07.712Z,100472.16
2019-05-21T00:57:41.422Z,100477.03
2019-05-21T01:00:15.327Z,100470.63
2019-05-21T01:02:49.120Z,100479.08
2019-05-21T01:05:22.853Z,100477.73
2019-05-21T01:07:56.929Z,100474.56
2019-05-21T01:10:30.858Z,100481.82
2019-05-21T01:13:08.298Z,100479.30
2019-05-21T01:15:42.268Z,100473.88
2019-05-21T01:18:15.991Z,100473.88
2019-05-21T01:20:49.772Z,100478.22
2019-05-21T01:23:23.551Z,100481.16
2019-05-21T01:25:57.262Z,100481.16
2019-05-21T01:28:30.974Z,100481.89
2019-05-21T01:31:05.238Z,100494.02
2019-05-21T01:33:38.989Z,100498.67
2019-05-21T01:36:13.243Z,100498.67
2019-05-21T01:38:46.992Z,100499.00
2019-05-21T01:41:20.696Z,100501.82
2019-05-21T01:43:54.413Z,100508.70
2019-05-21T01:46:28.122Z,100508.70
2019-05-21T01:49:01.992Z,100502.00
2019-05-21T01:51:35.699Z,100502.00
2019-05-21T01:54:09.420Z,100508.19
2019-05-21T01:56:43.390Z,100501.28
2019-05-21T01:59:17.123Z,100501.28
2019-05-21T02:01:50.821Z,100508.89
2019-05-21T02:04:24.537Z,100523.70
2019-05-21T02:06:58.430Z,100514.52
2019-05-21T02:09:32.209Z,100509.97
2019-05-21T02:12:05.939Z,100518.25
2019-05-21T02:14:39.676Z,100518.02
2019-05-21T02:17:13.415Z,100519.80
2019-05-21T02:19:47.140Z,100517.38
2019-05-21T02:22:20.848Z,100521.20
2019-05-21T02:24:54.562Z,100521.20
2019-05-21T02:27:28.285Z,100518.56
2019-05-21T02:30:02.299Z,100519.24
2019-05-21T02:32:36.529Z,100520.15
2019-05-21T02:35:10.235Z,100520.15
2019-05-21T02:37:43.943Z,100531.41
2019-05-21T02:40:17.658Z,100531.41
2019-05-21T02:42:51.371Z,100533.09
2019-05-21T02:45:25.093Z,100527.32
2019-05-21T02:47:58.794Z,100530.41
2019-05-21T02:50:32.524Z,100522.74
2019-05-21T02:53:06.234Z,100522.94
2019-05-21T02:55:39.944Z,100527.56
2019-05-21T02:58:13.656Z,100529.48
2019-05-21T03:00:47.372Z,100532.48
2019-05-21T03:03:21.088Z,100535.22
2019-05-21T03:06:12.471Z,100535.22
2019-05-21T03:08:30.207Z,100542.27
2019-05-21T03:11:03.936Z,100542.27
2019-05-21T03:13:37.654Z,100543.23
2019-05-21T03:16:11.353Z,100545.16
2019-05-21T03:18:45.077Z,100540.80
2019-05-21T03:21:18.802Z,100543.49
2019-05-21T03:23:52.521Z,100550.45
2019-05-21T03:26:26.299Z,100550.94
2019-05-21T03:29:00.019Z,100551.66
2019-05-21T03:31:33.739Z,100559.45
2019-05-21T03:34:07.427Z,100557.08
2019-05-21T03:36:41.142Z,100557.08
2019-05-21T03:39:19.115Z,100559.45
2019-05-21T03:41:50.268Z,100551.96
2019-05-21T03:44:23.978Z,100552.80
2019-05-21T03:46:57.692Z,100565.59
2019-05-21T03:49:31.774Z,100565.59
2019-05-21T03:52:05.488Z,100575.47
2019-05-21T03:54:39.200Z,100574.35
2019-05-21T03:57:13.889Z,100574.35
2019-05-21T03:59:47.579Z,100581.77
2019-05-21T04:02:21.288Z,100588.00
2019-05-21T04:04:55.014Z,100588.00
2019-05-21T04:07:28.727Z,100587.83
2019-05-21T04:10:03.212Z,100587.83
2019-05-21T04:12:36.932Z,100591.82
2019-05-21T04:15:10.670Z,100591.82
2019-05-21T04:17:44.374Z,100592.65
2019-05-21T04:20:18.105Z,100591.82
2019-05-21T04:22:51.849Z,100595.48
2019-05-21T04:25:25.534Z,100583.34
2019-05-21T04:27:59.355Z,100583.34
2019-05-21T04:30:33.156Z,100593.67
2019-05-21T04:33:06.969Z,100586.53
2019-05-21T04:35:40.673Z,100595.55
2019-05-21T04:38:14.410Z,100591.51
2019-05-21T04:40:48.292Z,100591.51
2019-05-21T04:43:22.072Z,100604.42
2019-05-21T04:45:55.854Z,100607.22
2019-05-21T04:48:29.618Z,100607.22
2019-05-21T04:51:03.393Z,100601.20
2019-05-21T04:53:37.137Z,100602.73
2019-05-21T04:56:10.853Z,100597.77
2019-05-21T04:58:44.573Z,100597.77
2019-05-21T05:01:18.294Z,100604.36
2019-05-21T05:03:52.008Z,100606.02
2019-05-21T05:06:25.832Z,100605.14
2019-05-21T05:08:59.530Z,100609.34
2019-05-21T05:11:33.514Z,100610.33
2019-05-21T05:14:07.225Z,100611.65
2019-05-21T05:16:40.952Z,100606.59
2019-05-21T05:19:14.667Z,100606.59
2019-05-21T05:21:48.377Z,100600.58
2019-05-21T05:24:22.090Z,100610.02
2019-05-21T05:26:55.790Z,100619.67
2019-05-21T05:29:29.506Z,100619.67
2019-05-21T05:32:03.194Z,100629.87
2019-05-21T05:34:36.945Z,100635.64
2019-05-21T05:37:10.716Z,100616.99
2019-05-21T05:39:44.432Z,100616.99
2019-05-21T05:42:18.164Z,100638.89
2019-05-21T05:44:52.971Z,100637.11
2019-05-21T05:47:29.700Z,100645.06
2019-05-21T05:50:04.737Z,100633.59
2019-05-21T05:52:38.465Z,100633.09
2019-05-21T05:55:13.195Z,100635.06
2019-05-21T05:57:46.936Z,100635.06
2019-05-21T06:00:21.017Z,100631.72
2019-05-21T06:02:54.741Z,100631.86
2019-05-21T06:05:28.446Z,100631.86
2019-05-21T06:08:02.190Z,100636.05
2019-05-21T06:10:39.808Z,100636.04
2019-05-21T06:13:11.372Z,100641.92
2019-05-21T06:15:45.074Z,100646.14
2019-05-21T06:18:18.809Z,100640.87
2019-05-21T06:20:52.512Z,100646.14
2019-05-21T06:23:26.254Z,100643.34
2019-05-21T06:25:59.972Z,100637.06
2019-05-21T06:28:33.702Z,100639.11
2019-05-21T06:31:07.419Z,100636.73
2019-05-21T06:33:41.296Z,100642.05
2019-05-21T06:36:15.019Z,100646.05
2019-05-21T06:38:48.726Z,100645.56
2019-05-21T06:41:22.421Z,100642.88
2019-05-21T06:43:56.152Z,100642.88
2019-05-21T06:46:29.849Z,100650.54
2019-05-21T06:49:03.574Z,100656.27
2019-05-21T06:51:37.310Z,100650.70
2019-05-21T06:54:11.021Z,100654.36
2019-05-21T06:56:44.752Z,100654.36
2019-05-21T06:59:18.542Z,100669.83
2019-05-21T07:01:52.342Z,100678.12
2019-05-21T07:04:26.078Z,100678.12
2019-05-21T07:06:59.781Z,100673.86
2019-05-21T07:09:33.507Z,100677.67
2019-05-21T07:12:07.227Z,100674.61
2019-05-21T07:14:40.955Z,100678.66
2019-05-21T07:17:14.658Z,100678.66
2019-05-21T07:19:48.377Z,100697.44
2019-05-21T07:22:22.098Z,100703.47
2019-05-21T07:24:55.801Z,100700.78
2019-05-21T07:27:29.512Z,100703.50
2019-05-21T07:30:04.053Z,100702.30
2019-05-21T07:32:37.796Z,100702.30
2019-05-21T07:35:12.097Z,100712.91
2019-05-21T07:37:45.813Z,100718.71
2019-05-21T07:40:19.542Z,100719.65
2019-05-21T07:42:53.274Z,100719.65
2019-05-21T07:45:27.004Z,100724.45
2019-05-21T07:48:00.718Z,100724.45
2019-05-21T07:50:35.201Z,100723.15
2019-05-21T07:53:08.923Z,100732.73
2019-05-21T07:55:42.626Z,100735.80
2019-05-21T07:58:16.357Z,100735.80
2019-05-21T08:00:50.067Z,100737.05
2019-05-21T08:03:23.782Z,100740.05
2019-05-21T08:05:57.499Z,100726.88
2019-05-21T08:08:31.252Z,100726.88
2019-05-21T08:11:05.202Z,100725.25
2019-05-21T08:13:38.971Z,100718.44
2019-05-21T08:16:13.541Z,100718.44
2019-05-21T08:18:47.286Z,100741.61
2019-05-21T08:21:21.028Z,100741.61
2019-05-21T08:23:54.794Z,100748.30
2019-05-21T08:26:28.647Z,100748.30
2019-05-21T08:29:02.374Z,100745.69
2019-05-21T08:31:36.096Z,100746.41
2019-05-21T08:34:09.887Z,100751.00
2019-05-21T08:36:43.723Z,100741.61
2019-05-21T08:39:28.248Z,100752.85
2019-05-21T08:41:53.052Z,100752.85
2019-05-21T08:44:26.780Z,100747.06
2019-05-21T08:47:00.561Z,100739.90
2019-05-21T08:49:34.404Z,100739.31
2019-05-21T08:52:08.152Z,100740.43
2019-05-21T08:54:41.974Z,100741.44
2019-05-21T08:57:15.700Z,100747.40
2019-05-21T08:59:49.542Z,100747.40
2019-05-21T09:02:23.254Z,100750.92
2019-05-21T09:04:57.006Z,100761.17
2019-05-21T09:07:30.765Z,100762.19
2019-05-21T09:10:06.246Z,100758.85
2019-05-21T09:12:39.963Z,100771.78
2019-05-21T09:15:15.265Z,100771.78
2019-05-21T09:17:48.993Z,100774.42
2019-05-21T09:20:22.726Z,100770.56
2019-05-21T09:22:57.225Z,100770.56
2019-05-21T09:25:36.850Z,100774.03
2019-05-21T09:28:10.616Z,100768.55
2019-05-21T09:30:44.388Z,100768.55
2019-05-21T09:33:18.181Z,100775.89
2019-05-21T09:35:51.894Z,100781.14
2019-05-21T09:38:25.630Z,100784.48
2019-05-21T09:40:59.405Z,100784.48
2019-05-21T09:43:33.135Z,100790.87
2019-05-21T09:46:06.866Z,100799.37
2019-05-21T09:48:40.615Z,100798.30
2019-05-21T09:51:19.884Z,100798.59
2019-05-21T09:53:49.844Z,100800.64
2019-05-21T09:56:23.553Z,100800.17
2019-05-21T09:58:57.273Z,100805.25
2019-05-21T10:01:31.008Z,100815.00
2019-05-21T10:04:04.742Z,100815.00
2019-05-21T10:06:38.511Z,100817.33
2019-05-21T10:09:13.137Z,100817.33
2019-05-21T10:11:47.023Z,100827.37
2019-05-21T10:14:20.730Z,100835.89
2019-05-21T10:16:54.702Z,100834.63
2019-05-21T10:19:28.436Z,100844.24
2019-05-21T10:22:02.329Z,100838.38
2019-05-21T10:24:36.073Z,100830.87
2019-05-21T10:27:09.795Z,100842.94
2019-05-21T10:29:43.504Z,100842.94
2019-05-21T10:32:17.218Z,100848.45
2019-05-21T10:34:50.937Z,100853.39
2019-05-21T10:37:24.660Z,100853.28
2019-05-21T10:39:58.389Z,100853.73
2019-05-21T10:42:32.120Z,100860.58
2019-05-21T10:45:05.913Z,100864.63
2019-05-21T10:47:39.591Z,100871.23
2019-05-21T10:50:13.303Z,100864.81
2019-05-21T10:52:47.016Z,100869.25
2019-05-21T10:55:20.783Z,100869.25
2019-05-21T10:57:54.541Z,100874.79
2019-05-21T11:00:28.251Z,100873.66
2019-05-21T11:03:02.029Z,100875.08
2019-05-21T11:05:35.794Z,100880.27
2019-05-21T11:08:25.543Z,100880.27
2019-05-21T11:10:44.961Z,100879.61
2019-05-21T11:13:18.680Z,100889.93
2019-05-21T11:15:52.394Z,100896.15
2019-05-21T11:18:26.117Z,100896.15
2019-05-21T11:20:59.825Z,100897.73
2019-05-21T11:23:33.656Z,100897.73
2019-05-21T11:26:07.344Z,100900.66
2019-05-21T11:28:41.076Z,100908.38
2019-05-21T11:31:14.805Z,100908.38
2019-05-21T11:33:48.605Z,100899.68
2019-05-21T11:36:22.331Z,100900.56
2019-05-21T11:38:56.038Z,100902.34
2019-05-21T11:41:29.746Z,100902.34
2019-05-21T11:44:03.502Z,100911.09
2019-05-21T11:46:37.287Z,100911.09
2019-05-21T11:49:10.979Z,100918.91
2019-05-21T11:51:44.700Z,100918.91
2019-05-21T11:54:18.461Z,100924.28
2019-05-21T11:56:52.174Z,100933.28
2019-05-21T11:59:25.898Z,100937.73
2019-05-21T12:01:59.623Z,100938.20
2019-05-21T12:04:33.355Z,100948.91
2019-05-21T12:07:07.070Z,100948.91
2019-05-21T12:09:40.789Z,100950.39
2019-05-21T12:12:14.507Z,100950.69
2019-05-21T12:14:48.237Z,100950.69
2019-05-21T12:17:21.944Z,100953.72
2019-05-21T12:19:55.652Z,100948.55
2019-05-21T12:22:29.374Z,100951.91
2019-05-21T12:25:03.842Z,100953.40
2019-05-21T12:27:37.556Z,100945.62
2019-05-21T12:30:11.265Z,100950.02
2019-05-21T12:32:45.711Z,100944.44
2019-05-21T12:35:19.428Z,100944.44
2019-05-21T12:37:53.141Z,100943.87
2019-05-21T12:40:26.849Z,100946.60
2019-05-21T12:43:00.569Z,100946.60
2019-05-21T12:45:34.270Z,100948.79
2019-05-21T12:48:07.992Z,100948.79
2019-05-21T12:50:41.744Z,100958.29
2019-05-21T12:53:16.743Z,100958.29
2019-05-21T12:55:50.585Z,100954.96
2019-05-21T12:58:24.339Z,100968.02
2019-05-21T13:00:58.120Z,100958.92
2019-05-21T13:03:31.831Z,100958.92
2019-05-21T13:06:05.579Z,100964.09
2019-05-21T13:08:39.356Z,100965.42
2019-05-21T13:11:14.029Z,100965.42
2019-05-21T13:13:47.742Z,100964.61
2019-05-21T13:16:21.537Z,100961.51
2019-05-21T13:18:55.328Z,100971.78
2019-05-21T13:21:29.048Z,100971.78
2019-05-21T13:24:02.765Z,100968.50
2019-05-21T13:26:36.486Z,100968.50
2019-05-21T13:29:10.191Z,100969.72
2019-05-21T13:31:43.910Z,100963.19
2019-05-21T13:34:17.647Z,100964.12
2019-05-21T13:36:51.336Z,100964.12
2019-05-21T13:39:25.752Z,100966.30
2019-05-21T13:41:59.669Z,100973.81
2019-05-21T13:44:33.364Z,100975.55
2019-05-21T13:47:07.210Z,100970.76
2019-05-21T13:49:41.147Z,100970.76
2019-05-21T13:52:14.853Z,100975.03
2019-05-21T13:54:48.605Z,100964.47
2019-05-21T13:57:22.614Z,100964.47
2019-05-21T13:59:56.531Z,100964.84
2019-05-21T14:02:30.315Z,100968.58
2019-05-21T14:05:04.679Z,100960.08
2019-05-21T14:07:38.401Z,100960.08
2019-05-21T14:10:18.285Z,100959.62
2019-05-21T14:12:48.669Z,100966.69
2019-05-21T14:15:22.406Z,100966.69
2019-05-21T14:17:56.110Z,100972.66
2019-05-21T14:20:29.849Z,100972.66
2019-05-21T14:23:03.732Z,100975.09
2019-05-21T14:25:37.427Z,100976.98
2019-05-21T14:28:11.127Z,100976.30
2019-05-21T14:30:44.851Z,100976.30
2019-05-21T14:33:18.597Z,100974.74
2019-05-21T14:35:52.309Z,100974.74
2019-05-21T14:38:26.107Z,100976.08
2019-05-21T14:41:00.210Z,100978.32
2019-05-21T14:43:33.926Z,100987.14
2019-05-21T14:46:07.660Z,100986.66
2019-05-21T14:48:41.389Z,100992.30
2019-05-21T14:51:15.086Z,100992.30
2019-05-21T14:53:48.788Z,100984.33
2019-05-21T14:56:22.529Z,100984.69
2019-05-21T14:58:56.300Z,100977.48
2019-05-21T15:01:30.066Z,100984.82
2019-05-21T15:04:03.900Z,100989.67
2019-05-21T15:06:37.756Z,100992.11
2019-05-21T15:09:11.466Z,100992.11
2019-05-21T15:11:45.187Z,100989.79
2019-05-21T15:14:18.907Z,100983.25
2019-05-21T15:16:52.619Z,100983.25
2019-05-21T15:19:26.330Z,100986.86
2019-05-21T15:22:00.051Z,100991.89
2019-05-21T15:24:33.809Z,100994.06
2019-05-21T15:27:07.573Z,100993.29
2019-05-21T15:29:41.286Z,100989.84
2019-05-21T15:32:15.011Z,100989.84
2019-05-21T15:34:48.715Z,101003.84
2019-05-21T15:37:22.447Z,101003.84
2019-05-21T15:39:56.158Z,101001.45
2019-05-21T15:42:30.064Z,101001.45
2019-05-21T15:45:05.285Z,101002.55
2019-05-21T15:47:39.006Z,101002.55
2019-05-21T15:50:13.574Z,101008.28
2019-05-21T15:52:47.286Z,101006.92
2019-05-21T15:55:21.007Z,101009.94
2019-05-21T15:57:54.736Z,101015.04
2019-05-21T16:00:28.490Z,101017.37
2019-05-21T16:03:02.260Z,101021.95
2019-05-21T16:05:36.002Z,101021.95
2019-05-21T16:08:09.714Z,101032.00
2019-05-21T16:10:43.462Z,101020.33
2019-05-21T16:13:17.228Z,101020.33
2019-05-21T16:15:50.958Z,101024.81
2019-05-21T16:18:24.655Z,101024.63
2019-05-21T16:20:58.353Z,101024.63
2019-05-21T16:23:32.096Z,101017.41
2019-05-21T16:26:05.946Z,101019.78
2019-05-21T16:28:39.676Z,101021.73
2019-05-21T16:31:13.758Z,101021.73
2019-05-21T16:33:47.458Z,101021.23
2019-05-21T16:36:21.187Z,101020.61
2019-05-21T16:38:55.003Z,101017.66
2019-05-21T16:41:43.629Z,101015.55
2019-05-21T16:44:04.636Z,101015.55
2019-05-21T16:46:38.397Z,101020.17
2019-05-21T16:49:12.299Z,101024.66
2019-05-21T16:51:46.003Z,101024.66
2019-05-21T16:54:19.702Z,101016.78
2019-05-21T16:56:53.535Z,101018.01
2019-05-21T16:59:27.272Z,101022.83
2019-05-21T17:02:00.978Z,101024.83
2019-05-21T17:04:34.794Z,101026.14
2019-05-21T17:07:08.513Z,101024.75
2019-05-21T17:09:42.211Z,101032.17
2019-05-21T17:12:15.929Z,101032.17
2019-05-21T17:14:50.081Z,101029.67
2019-05-21T17:17:23.916Z,101034.50
2019-05-21T17:19:57.635Z,101034.50
2019-05-21T17:22:31.385Z,101050.55
2019-05-21T17:25:06.315Z,101050.55
2019-05-21T17:27:40.022Z,101055.05
2019-05-21T17:30:15.051Z,101055.05
2019-05-21T17:32:48.817Z,101064.05
2019-05-21T17:35:22.581Z,101060.17
2019-05-21T17:37:56.418Z,101060.17
2019-05-21T17:40:30.126Z,101077.70
2019-05-21T17:43:03.923Z,101082.64
2019-05-21T17:45:37.655Z,101083.84
2019-05-21T17:48:11.385Z,101083.84
2019-05-21T17:50:48.041Z,101085.63
2019-05-21T17:53:22.255Z,101085.63
2019-05-21T17:55:55.984Z,101087.69
2019-05-21T17:58:30.182Z,101086.39
2019-05-21T18:01:03.933Z,101085.69
2019-05-21T18:03:37.651Z,101085.69
2019-05-21T18:06:12.109Z,101086.82
2019-05-21T18:08:45.853Z,101086.82
2019-05-21T18:11:19.571Z,101099.04
2019-05-21T18:13:53.296Z,101099.04
2019-05-21T18:16:27.051Z,101104.23
2019-05-21T18:19:01.743Z,101104.23
2019-05-21T18:21:35.491Z,101110.45
2019-05-21T18:24:10.478Z,101118.50
2019-05-21T18:26:44.228Z,101117.97
2019-05-21T18:29:17.953Z,101122.48
2019-05-21T18:31:53.136Z,101131.12
2019-05-21T18:34:26.970Z,101131.12
2019-05-21T18:37:00.697Z,101140.81
2019-05-21T18:39:34.503Z,101143.31
2019-05-21T18:42:21.081Z,101140.56
2019-05-21T18:44:43.749Z,101142.09
2019-05-21T18:47:17.553Z,101142.09
2019-05-21T18:49:51.272Z,101147.88
2019-05-21T18:52:25.004Z,101147.88
2019-05-21T18:54:58.804Z,101149.34
2019-05-21T18:57:32.613Z,101149.34
2019-05-21T19:00:08.236Z,101144.69
2019-05-21T19:02:41.952Z,101144.69
2019-05-21T19:05:15.703Z,101160.05
2019-05-21T19:07:49.432Z,101162.52
2019-05-21T19:10:23.180Z,101162.52
2019-05-21T19:13:00.444Z,101170.23
2019-05-21T19:15:32.355Z,101170.23
2019-05-21T19:18:06.077Z,101176.34
2019-05-21T19:20:39.821Z,101175.06
2019-05-21T19:23:13.546Z,101184.61
2019-05-21T19:25:47.269Z,101176.84
2019-05-21T19:28:21.007Z,101176.84
2019-05-21T19:30:54.753Z,101188.28
2019-05-21T19:33:28.484Z,101188.28
2019-05-21T19:36:02.399Z,101201.98
2019-05-21T19:38:37.242Z,101201.98
2019-05-21T19:41:11.174Z,101198.55
2019-05-21T19:43:44.935Z,101202.05
2019-05-21T19:46:18.683Z,101202.64
2019-05-21T19:48:52.432Z,101204.11
2019-05-21T19:51:26.518Z,101204.11
2019-05-21T19:54:00.277Z,101209.45
2019-05-21T19:56:36.391Z,101218.05
2019-05-21T19:59:09.508Z,101233.05
2019-05-21T20:01:43.208Z,101233.05
2019-05-21T20:04:16.942Z,101243.36
2019-05-21T20:06:50.694Z,101235.89
2019-05-21T20:09:26.842Z,101244.69
2019-05-21T20:12:00.119Z,101250.72
2019-05-21T20:14:33.877Z,101248.05
2019-05-21T20:17:07.630Z,101248.05
2019-05-21T20:19:41.882Z,101262.22
2019-05-21T20:22:15.984Z,101262.97
2019-05-21T20:24:49.683Z,101262.80
2019-05-21T20:27:23.444Z,101262.80
2019-05-21T20:30:11.687Z,101270.73
2019-05-21T20:32:33.344Z,101277.59
2019-05-21T20:35:07.268Z,101267.69
2019-05-21T20:37:41.032Z,101274.47
2019-05-21T20:40:14.938Z,101274.68
2019-05-21T20:42:48.619Z,101274.68
2019-05-21T20:45:22.493Z,101270.33
2019-05-21T20:47:57.063Z,101266.70
2019-05-21T20:50:30.847Z,101273.98
2019-05-21T20:53:04.642Z,101282.25
2019-05-21T20:55:38.368Z,101287.80
2019-05-21T20:58:12.116Z,101287.80
2019-05-21T21:00:45.871Z,101277.63
2019-05-21T21:03:19.617Z,101277.63
2019-05-21T21:05:53.411Z,101279.11
2019-05-21T21:08:27.969Z,101279.11
2019-05-21T21:11:01.882Z,101281.08
2019-05-21T21:13:35.961Z,101272.04
2019-05-21T21:16:10.324Z,101268.23
2019-05-21T21:18:44.474Z,101270.61
2019-05-21T21:21:18.409Z,101270.61
2019-05-21T21:23:52.259Z,101270.67
2019-05-21T21:26:26.080Z,101283.39
2019-05-21T21:28:59.887Z,101283.39
2019-05-21T21:31:33.749Z,101279.94
2019-05-21T21:34:07.453Z,101282.99
2019-05-21T21:36:41.427Z,101282.99
2019-05-21T21:39:15.171Z,101286.56
2019-05-21T21:41:48.972Z,101281.69
2019-05-21T21:44:33.583Z,101282.02
2019-05-21T21:46:58.226Z,101284.62
2019-05-21T21:49:31.966Z,101295.83
2019-05-21T21:52:05.712Z,101295.83
2019-05-21T21:54:39.581Z,101290.85
2019-05-21T21:57:14.069Z,101295.79
2019-05-21T21:59:47.879Z,101295.55
2019-05-21T22:02:27.806Z,101295.55
2019-05-21T22:05:01.610Z,101300.59
2019-05-21T22:07:35.440Z,101299.38
2019-05-21T22:10:09.139Z,101299.38
2019-05-21T22:12:42.859Z,101303.27
2019-05-21T22:15:16.599Z,101303.27
2019-05-21T22:17:50.341Z,101308.63
2019-05-21T22:20:24.091Z,101314.18
2019-05-21T22:22:57.821Z,101314.18
2019-05-21T22:25:31.566Z,101311.77
2019-05-21T22:28:05.795Z,101310.81
2019-05-21T22:30:39.622Z,101311.72
2019-05-21T22:33:13.512Z,101307.69
2019-05-21T22:35:47.240Z,101309.25
2019-05-21T22:38:21.026Z,101312.71
2019-05-21T22:40:54.744Z,101310.67
2019-05-21T22:43:28.448Z,101314.23
2019-05-21T22:46:02.166Z,101308.67
2019-05-21T22:48:35.888Z,101325.70
2019-05-21T22:51:09.591Z,101316.02
2019-05-21T22:53:43.341Z,101316.48
2019-05-21T22:56:17.053Z,101307.98
2019-05-21T22:58:50.787Z,101307.98
2019-05-21T23:01:24.490Z,101317.33
2019-05-21T23:03:58.309Z,101315.55
2019-05-21T23:06:32.059Z,101310.35
2019-05-21T23:09:06.289Z,101310.41
2019-05-21T23:11:40.006Z,101307.89
2019-05-21T23:14:13.708Z,101296.75
2019-05-21T23:16:47.420Z,101302.48
2019-05-21T23:19:24.125Z,101302.48
2019-05-21T23:21:56.750Z,101304.61
2019-05-21T23:24:30.464Z,101303.01
2019-05-21T23:27:04.183Z,101309.69
2019-05-21T23:29:37.998Z,101310.09
2019-05-21T23:32:11.784Z,101304.47
2019-05-21T23:34:45.506Z,101304.84
2019-05-21T23:37:19.219Z,101304.84
2019-05-21T23:39:52.935Z,101305.74
2019-05-21T23:42:29.868Z,101305.33
2019-05-21T23:45:02.150Z,101300.08
2019-05-21T23:47:35.989Z,101307.05
2019-05-21T23:50:11.182Z,101312.71
2019-05-21T23:52:44.899Z,101312.71
2019-05-21T23:55:18.600Z,101310.09
2019-05-21T23:57:52.313Z,101311.95
